sensor_id;sensor_type;location;lat;lon;timestamp;P1;durP1;ratioP1;P2;durP2;ratioP2
38783;SDS011;24531;45.502;12.238;2022-07-29T00:01:47;6.95;;;4.85;;
38783;SDS011;24531;45.502;12.238;2022-07-29T00:04:17;6.53;;;5.07;;
38783;SDS011;24531;45.502;12.238;2022-07-29T00:06:43;8.30;;;5.28;;
38783;SDS011;24531;45.502;12.238;2022-07-29T00:09:09;6.20;;;4.95;;
38783;SDS011;24531;45.502;12.238;2022-07-29T00:11:37;9.98;;;5.00;;
38783;SDS011;24531;45.502;12.238;2022-07-29T00:14:03;6.97;;;5.30;;
38783;SDS011;24531;45.502;12.238;2022-07-29T00:16:29;8.23;;;5.70;;
38783;SDS011;24531;45.502;12.238;2022-07-29T00:18:57;6.47;;;4.93;;
38783;SDS011;24531;45.502;12.238;2022-07-29T00:21:23;7.43;;;5.32;;
38783;SDS011;24531;45.502;12.238;2022-07-29T00:23:48;7.95;;;5.75;;
38783;SDS011;24531;45.502;12.238;2022-07-29T00:26:14;8.07;;;4.97;;
38783;SDS011;24531;45.502;12.238;2022-07-29T00:28:42;7.80;;;5.43;;
38783;SDS011;24531;45.502;12.238;2022-07-29T00:31:08;11.13;;;5.40;;
38783;SDS011;24531;45.502;12.238;2022-07-29T00:33:34;8.80;;;5.38;;
38783;SDS011;24531;45.502;12.238;2022-07-29T00:35:59;6.20;;;5.20;;
38783;SDS011;24531;45.502;12.238;2022-07-29T00:38:25;10.45;;;5.50;;
38783;SDS011;24531;45.502;12.238;2022-07-29T00:40:51;12.45;;;5.50;;
38783;SDS011;24531;45.502;12.238;2022-07-29T00:43:16;7.70;;;4.47;;
38783;SDS011;24531;45.502;12.238;2022-07-29T00:45:45;8.10;;;4.70;;
38783;SDS011;24531;45.502;12.238;2022-07-29T00:48:17;4.85;;;3.70;;
38783;SDS011;24531;45.502;12.238;2022-07-29T00:50:49;11.65;;;4.28;;
38783;SDS011;24531;45.502;12.238;2022-07-29T00:53:15;5.38;;;3.90;;
38783;SDS011;24531;45.502;12.238;2022-07-29T00:55:41;4.28;;;3.22;;
38783;SDS011;24531;45.502;12.238;2022-07-29T00:58:06;7.05;;;2.70;;
38783;SDS011;24531;45.502;12.238;2022-07-29T01:00:33;6.47;;;3.05;;
38783;SDS011;24531;45.502;12.238;2022-07-29T01:02:59;5.60;;;2.88;;
38783;SDS011;24531;45.502;12.238;2022-07-29T01:05:40;3.90;;;2.90;;
38783;SDS011;24531;45.502;12.238;2022-07-29T01:11:35;5.05;;;2.28;;
38783;SDS011;24531;45.502;12.238;2022-07-29T01:14:04;5.90;;;2.85;;
38783;SDS011;24531;45.502;12.238;2022-07-29T01:16:42;3.88;;;2.33;;
38783;SDS011;24531;45.502;12.238;2022-07-29T01:22:24;3.35;;;2.30;;
38783;SDS011;24531;45.502;12.238;2022-07-29T01:30:21;4.82;;;2.33;;
38783;SDS011;24531;45.502;12.238;2022-07-29T01:32:50;4.22;;;2.20;;
38783;SDS011;24531;45.502;12.238;2022-07-29T01:35:39;4.07;;;1.90;;
38783;SDS011;24531;45.502;12.238;2022-07-29T01:38:13;5.18;;;2.35;;
38783;SDS011;24531;45.502;12.238;2022-07-29T01:41:03;3.85;;;1.90;;
38783;SDS011;24531;45.502;12.238;2022-07-29T01:43:42;5.05;;;2.30;;
38783;SDS011;24531;45.502;12.238;2022-07-29T01:46:31;2.70;;;1.83;;
38783;SDS011;24531;45.502;12.238;2022-07-29T01:49:08;2.67;;;1.88;;
38783;SDS011;24531;45.502;12.238;2022-07-29T01:52:08;5.95;;;2.17;;
38783;SDS011;24531;45.502;12.238;2022-07-29T01:54:42;3.15;;;2.38;;
38783;SDS011;24531;45.502;12.238;2022-07-29T01:57:18;3.63;;;1.70;;
38783;SDS011;24531;45.502;12.238;2022-07-29T01:59:47;5.15;;;2.35;;
38783;SDS011;24531;45.502;12.238;2022-07-29T02:02:15;5.32;;;2.67;;
38783;SDS011;24531;45.502;12.238;2022-07-29T02:04:43;4.28;;;2.40;;
38783;SDS011;24531;45.502;12.238;2022-07-29T02:07:13;8.30;;;2.28;;
38783;SDS011;24531;45.502;12.238;2022-07-29T02:09:43;6.20;;;2.13;;
38783;SDS011;24531;45.502;12.238;2022-07-29T02:12:13;4.75;;;2.30;;
38783;SDS011;24531;45.502;12.238;2022-07-29T02:14:50;3.78;;;2.28;;
38783;SDS011;24531;45.502;12.238;2022-07-29T02:17:35;5.50;;;2.35;;
38783;SDS011;24531;45.502;12.238;2022-07-29T02:20:25;2.45;;;1.77;;
38783;SDS011;24531;45.502;12.238;2022-07-29T02:22:52;3.60;;;2.20;;
38783;SDS011;24531;45.502;12.238;2022-07-29T02:25:23;3.53;;;2.03;;
38783;SDS011;24531;45.502;12.238;2022-07-29T02:27:50;4.70;;;1.92;;
38783;SDS011;24531;45.502;12.238;2022-07-29T02:30:17;4.10;;;2.10;;
38783;SDS011;24531;45.502;12.238;2022-07-29T02:32:46;3.15;;;2.00;;
38783;SDS011;24531;45.502;12.238;2022-07-29T02:35:15;4.78;;;2.13;;
38783;SDS011;24531;45.502;12.238;2022-07-29T02:37:42;3.35;;;2.50;;
38783;SDS011;24531;45.502;12.238;2022-07-29T02:40:30;4.50;;;2.20;;
38783;SDS011;24531;45.502;12.238;2022-07-29T02:42:57;3.92;;;2.55;;
38783;SDS011;24531;45.502;12.238;2022-07-29T02:45:23;4.45;;;2.60;;
38783;SDS011;24531;45.502;12.238;2022-07-29T02:47:49;4.72;;;2.60;;
38783;SDS011;24531;45.502;12.238;2022-07-29T02:53:02;3.92;;;2.60;;
38783;SDS011;24531;45.502;12.238;2022-07-29T02:55:40;4.40;;;2.80;;
38783;SDS011;24531;45.502;12.238;2022-07-29T03:01:03;6.65;;;2.50;;
38783;SDS011;24531;45.502;12.238;2022-07-29T03:03:38;4.50;;;2.30;;
38783;SDS011;24531;45.502;12.238;2022-07-29T03:06:07;3.92;;;2.30;;
38783;SDS011;24531;45.502;12.238;2022-07-29T03:08:33;3.22;;;2.25;;
38783;SDS011;24531;45.502;12.238;2022-07-29T03:10:59;5.75;;;2.40;;
38783;SDS011;24531;45.502;12.238;2022-07-29T03:13:26;3.85;;;2.35;;
38783;SDS011;24531;45.502;12.238;2022-07-29T03:15:54;5.53;;;2.38;;
38783;SDS011;24531;45.502;12.238;2022-07-29T03:18:22;4.38;;;2.42;;
38783;SDS011;24531;45.502;12.238;2022-07-29T03:20:48;3.05;;;2.35;;
38783;SDS011;24531;45.502;12.238;2022-07-29T03:23:23;5.10;;;2.13;;
38783;SDS011;24531;45.502;12.238;2022-07-29T03:25:51;6.85;;;2.55;;
38783;SDS011;24531;45.502;12.238;2022-07-29T03:28:17;2.50;;;1.80;;
38783;SDS011;24531;45.502;12.238;2022-07-29T03:30:43;3.45;;;2.10;;
38783;SDS011;24531;45.502;12.238;2022-07-29T03:33:08;2.78;;;1.98;;
38783;SDS011;24531;45.502;12.238;2022-07-29T03:35:34;4.63;;;2.30;;
38783;SDS011;24531;45.502;12.238;2022-07-29T03:38:00;5.32;;;2.30;;
38783;SDS011;24531;45.502;12.238;2022-07-29T03:40:33;3.72;;;2.30;;
38783;SDS011;24531;45.502;12.238;2022-07-29T03:43:05;3.80;;;2.50;;
38783;SDS011;24531;45.502;12.238;2022-07-29T03:45:34;7.57;;;2.65;;
38783;SDS011;24531;45.502;12.238;2022-07-29T03:48:03;4.82;;;2.92;;
38783;SDS011;24531;45.502;12.238;2022-07-29T03:50:33;4.63;;;2.05;;
38783;SDS011;24531;45.502;12.238;2022-07-29T03:53:00;6.05;;;2.33;;
38783;SDS011;24531;45.502;12.238;2022-07-29T03:55:26;3.28;;;2.40;;
38783;SDS011;24531;45.502;12.238;2022-07-29T03:58:05;5.10;;;2.58;;
38783;SDS011;24531;45.502;12.238;2022-07-29T04:00:36;6.38;;;2.85;;
38783;SDS011;24531;45.502;12.238;2022-07-29T04:03:02;4.53;;;2.72;;
38783;SDS011;24531;45.502;12.238;2022-07-29T04:05:32;4.72;;;2.28;;
38783;SDS011;24531;45.502;12.238;2022-07-29T04:07:57;4.32;;;2.92;;
38783;SDS011;24531;45.502;12.238;2022-07-29T04:10:23;7.70;;;3.30;;
38783;SDS011;24531;45.502;12.238;2022-07-29T04:12:49;3.47;;;2.65;;
38783;SDS011;24531;45.502;12.238;2022-07-29T04:15:18;4.47;;;3.30;;
38783;SDS011;24531;45.502;12.238;2022-07-29T04:17:43;4.47;;;3.10;;
38783;SDS011;24531;45.502;12.238;2022-07-29T04:20:09;7.63;;;2.92;;
38783;SDS011;24531;45.502;12.238;2022-07-29T04:22:38;7.85;;;3.25;;
38783;SDS011;24531;45.502;12.238;2022-07-29T04:25:04;4.30;;;2.83;;
38783;SDS011;24531;45.502;12.238;2022-07-29T04:27:30;5.05;;;3.05;;
38783;SDS011;24531;45.502;12.238;2022-07-29T04:29:55;8.77;;;3.22;;
38783;SDS011;24531;45.502;12.238;2022-07-29T04:32:21;4.53;;;2.67;;
38783;SDS011;24531;45.502;12.238;2022-07-29T04:34:47;3.20;;;2.90;;
38783;SDS011;24531;45.502;12.238;2022-07-29T04:37:13;3.40;;;3.10;;
38783;SDS011;24531;45.502;12.238;2022-07-29T04:39:38;3.45;;;2.97;;
38783;SDS011;24531;45.502;12.238;2022-07-29T04:42:04;5.18;;;3.28;;
38783;SDS011;24531;45.502;12.238;2022-07-29T04:44:30;6.40;;;3.20;;
38783;SDS011;24531;45.502;12.238;2022-07-29T04:46:56;4.32;;;3.58;;
38783;SDS011;24531;45.502;12.238;2022-07-29T04:49:22;6.28;;;3.35;;
38783;SDS011;24531;45.502;12.238;2022-07-29T04:51:48;5.22;;;3.28;;
38783;SDS011;24531;45.502;12.238;2022-07-29T04:54:14;4.72;;;2.60;;
38783;SDS011;24531;45.502;12.238;2022-07-29T04:56:39;4.97;;;3.25;;
38783;SDS011;24531;45.502;12.238;2022-07-29T04:59:06;5.82;;;3.30;;
38783;SDS011;24531;45.502;12.238;2022-07-29T05:01:35;3.05;;;2.72;;
38783;SDS011;24531;45.502;12.238;2022-07-29T05:04:04;5.32;;;3.22;;
38783;SDS011;24531;45.502;12.238;2022-07-29T05:06:29;6.28;;;3.05;;
38783;SDS011;24531;45.502;12.238;2022-07-29T05:08:55;6.15;;;3.30;;
38783;SDS011;24531;45.502;12.238;2022-07-29T05:11:33;9.98;;;4.32;;
38783;SDS011;24531;45.502;12.238;2022-07-29T05:13:59;7.20;;;3.60;;
38783;SDS011;24531;45.502;12.238;2022-07-29T05:16:24;5.10;;;3.95;;
38783;SDS011;24531;45.502;12.238;2022-07-29T05:18:50;5.50;;;3.10;;
38783;SDS011;24531;45.502;12.238;2022-07-29T05:21:15;6.15;;;4.22;;
38783;SDS011;24531;45.502;12.238;2022-07-29T05:23:41;6.85;;;3.35;;
38783;SDS011;24531;45.502;12.238;2022-07-29T05:26:07;8.07;;;4.07;;
38783;SDS011;24531;45.502;12.238;2022-07-29T05:28:38;3.50;;;3.17;;
38783;SDS011;24531;45.502;12.238;2022-07-29T05:31:04;6.18;;;3.97;;
38783;SDS011;24531;45.502;12.238;2022-07-29T05:33:29;6.40;;;3.42;;
38783;SDS011;24531;45.502;12.238;2022-07-29T05:35:55;9.52;;;4.07;;
38783;SDS011;24531;45.502;12.238;2022-07-29T05:38:21;6.70;;;3.67;;
38783;SDS011;24531;45.502;12.238;2022-07-29T05:40:47;4.72;;;3.70;;
38783;SDS011;24531;45.502;12.238;2022-07-29T05:43:12;6.93;;;3.78;;
38783;SDS011;24531;45.502;12.238;2022-07-29T05:45:38;7.60;;;3.53;;
38783;SDS011;24531;45.502;12.238;2022-07-29T05:48:04;5.18;;;4.28;;
38783;SDS011;24531;45.502;12.238;2022-07-29T05:50:29;5.00;;;4.40;;
38783;SDS011;24531;45.502;12.238;2022-07-29T05:52:55;9.57;;;4.45;;
38783;SDS011;24531;45.502;12.238;2022-07-29T05:55:23;4.55;;;4.15;;
38783;SDS011;24531;45.502;12.238;2022-07-29T05:57:51;5.38;;;4.00;;
38783;SDS011;24531;45.502;12.238;2022-07-29T06:00:17;5.32;;;3.55;;
38783;SDS011;24531;45.502;12.238;2022-07-29T06:02:42;5.25;;;4.18;;
38783;SDS011;24531;45.502;12.238;2022-07-29T06:05:08;4.93;;;3.85;;
38783;SDS011;24531;45.502;12.238;2022-07-29T06:07:37;4.20;;;2.97;;
38783;SDS011;24531;45.502;12.238;2022-07-29T06:10:10;5.68;;;3.47;;
38783;SDS011;24531;45.502;12.238;2022-07-29T06:24:21;5.30;;;3.67;;
38783;SDS011;24531;45.502;12.238;2022-07-29T06:26:49;5.65;;;3.58;;
38783;SDS011;24531;45.502;12.238;2022-07-29T06:29:36;5.32;;;3.25;;
38783;SDS011;24531;45.502;12.238;2022-07-29T06:35:04;7.70;;;2.97;;
38783;SDS011;24531;45.502;12.238;2022-07-29T06:37:31;7.20;;;3.58;;
38783;SDS011;24531;45.502;12.238;2022-07-29T06:40:00;5.43;;;3.88;;
38783;SDS011;24531;45.502;12.238;2022-07-29T06:42:45;4.05;;;3.25;;
38783;SDS011;24531;45.502;12.238;2022-07-29T06:45:15;5.30;;;3.13;;
38783;SDS011;24531;45.502;12.238;2022-07-29T06:47:41;4.25;;;2.95;;
38783;SDS011;24531;45.502;12.238;2022-07-29T06:50:06;5.30;;;3.05;;
38783;SDS011;24531;45.502;12.238;2022-07-29T06:52:48;6.18;;;3.50;;
38783;SDS011;24531;45.502;12.238;2022-07-29T06:55:15;3.85;;;2.80;;
38783;SDS011;24531;45.502;12.238;2022-07-29T06:57:44;5.07;;;2.95;;
38783;SDS011;24531;45.502;12.238;2022-07-29T07:00:17;6.10;;;3.17;;
38783;SDS011;24531;45.502;12.238;2022-07-29T07:02:47;3.88;;;2.80;;
38783;SDS011;24531;45.502;12.238;2022-07-29T07:09:08;5.57;;;3.28;;
38783;SDS011;24531;45.502;12.238;2022-07-29T07:11:36;3.63;;;3.05;;
38783;SDS011;24531;45.502;12.238;2022-07-29T07:17:37;3.38;;;2.60;;
38783;SDS011;24531;45.502;12.238;2022-07-29T07:20:04;8.30;;;2.78;;
38783;SDS011;24531;45.502;12.238;2022-07-29T07:26:27;4.28;;;2.75;;
38783;SDS011;24531;45.502;12.238;2022-07-29T07:28:57;4.88;;;2.88;;
38783;SDS011;24531;45.502;12.238;2022-07-29T07:31:36;4.07;;;3.30;;
38783;SDS011;24531;45.502;12.238;2022-07-29T07:34:05;5.90;;;3.50;;
38783;SDS011;24531;45.502;12.238;2022-07-29T07:36:49;5.50;;;3.20;;
38783;SDS011;24531;45.502;12.238;2022-07-29T07:39:23;4.47;;;3.05;;
38783;SDS011;24531;45.502;12.238;2022-07-29T07:41:54;3.08;;;2.72;;
38783;SDS011;24531;45.502;12.238;2022-07-29T07:44:19;4.07;;;2.67;;
38783;SDS011;24531;45.502;12.238;2022-07-29T07:46:50;5.05;;;2.90;;
38783;SDS011;24531;45.502;12.238;2022-07-29T07:49:15;5.07;;;3.42;;
38783;SDS011;24531;45.502;12.238;2022-07-29T07:51:44;4.13;;;3.17;;
38783;SDS011;24531;45.502;12.238;2022-07-29T07:54:10;6.80;;;3.50;;
38783;SDS011;24531;45.502;12.238;2022-07-29T07:56:36;5.75;;;3.42;;
38783;SDS011;24531;45.502;12.238;2022-07-29T07:59:04;4.05;;;3.05;;
38783;SDS011;24531;45.502;12.238;2022-07-29T08:01:31;3.95;;;2.85;;
38783;SDS011;24531;45.502;12.238;2022-07-29T08:03:59;7.85;;;3.45;;
38783;SDS011;24531;45.502;12.238;2022-07-29T08:06:25;5.78;;;3.40;;
38783;SDS011;24531;45.502;12.238;2022-07-29T08:08:50;3.70;;;3.30;;
38783;SDS011;24531;45.502;12.238;2022-07-29T08:11:16;5.55;;;3.33;;
38783;SDS011;24531;45.502;12.238;2022-07-29T08:13:42;6.85;;;3.53;;
38783;SDS011;24531;45.502;12.238;2022-07-29T08:16:08;7.15;;;3.90;;
38783;SDS011;24531;45.502;12.238;2022-07-29T08:18:40;4.40;;;3.00;;
38783;SDS011;24531;45.502;12.238;2022-07-29T08:21:07;5.63;;;3.10;;
38783;SDS011;24531;45.502;12.238;2022-07-29T08:23:33;6.15;;;3.30;;
38783;SDS011;24531;45.502;12.238;2022-07-29T08:26:12;5.15;;;3.05;;
38783;SDS011;24531;45.502;12.238;2022-07-29T08:28:41;3.85;;;3.40;;
38783;SDS011;24531;45.502;12.238;2022-07-29T08:31:11;5.45;;;3.40;;
38783;SDS011;24531;45.502;12.238;2022-07-29T08:33:40;6.22;;;3.42;;
38783;SDS011;24531;45.502;12.238;2022-07-29T08:36:09;3.72;;;3.40;;
38783;SDS011;24531;45.502;12.238;2022-07-29T08:38:35;4.18;;;2.80;;
38783;SDS011;24531;45.502;12.238;2022-07-29T08:41:00;3.55;;;2.55;;
38783;SDS011;24531;45.502;12.238;2022-07-29T08:43:29;5.28;;;3.33;;
38783;SDS011;24531;45.502;12.238;2022-07-29T08:45:55;5.25;;;3.45;;
38783;SDS011;24531;45.502;12.238;2022-07-29T08:48:22;4.85;;;3.30;;
38783;SDS011;24531;45.502;12.238;2022-07-29T08:50:50;2.90;;;2.60;;
38783;SDS011;24531;45.502;12.238;2022-07-29T08:53:22;4.82;;;2.63;;
38783;SDS011;24531;45.502;12.238;2022-07-29T08:55:52;3.13;;;2.83;;
38783;SDS011;24531;45.502;12.238;2022-07-29T08:58:19;5.90;;;2.90;;
38783;SDS011;24531;45.502;12.238;2022-07-29T09:00:48;4.90;;;2.70;;
38783;SDS011;24531;45.502;12.238;2022-07-29T09:03:19;3.28;;;2.35;;
38783;SDS011;24531;45.502;12.238;2022-07-29T09:05:51;3.20;;;2.42;;
38783;SDS011;24531;45.502;12.238;2022-07-29T09:08:17;3.22;;;2.58;;
38783;SDS011;24531;45.502;12.238;2022-07-29T09:10:44;3.17;;;2.30;;
38783;SDS011;24531;45.502;12.238;2022-07-29T09:13:10;3.22;;;2.45;;
38783;SDS011;24531;45.502;12.238;2022-07-29T09:15:36;2.67;;;2.20;;
38783;SDS011;24531;45.502;12.238;2022-07-29T09:18:01;3.25;;;2.60;;
38783;SDS011;24531;45.502;12.238;2022-07-29T09:20:27;5.78;;;2.80;;
38783;SDS011;24531;45.502;12.238;2022-07-29T09:23:11;4.35;;;3.25;;
38783;SDS011;24531;45.502;12.238;2022-07-29T09:25:39;4.82;;;2.28;;
38783;SDS011;24531;45.502;12.238;2022-07-29T09:28:15;2.40;;;2.20;;
38783;SDS011;24531;45.502;12.238;2022-07-29T09:33:20;6.38;;;2.65;;
38783;SDS011;24531;45.502;12.238;2022-07-29T09:35:58;3.78;;;1.88;;
38783;SDS011;24531;45.502;12.238;2022-07-29T09:38:24;2.47;;;2.28;;
38783;SDS011;24531;45.502;12.238;2022-07-29T09:40:55;3.58;;;2.40;;
38783;SDS011;24531;45.502;12.238;2022-07-29T09:43:22;6.70;;;2.35;;
38783;SDS011;24531;45.502;12.238;2022-07-29T09:45:48;3.40;;;2.42;;
38783;SDS011;24531;45.502;12.238;2022-07-29T09:48:20;3.35;;;2.67;;
38783;SDS011;24531;45.502;12.238;2022-07-29T09:50:47;3.38;;;1.80;;
38783;SDS011;24531;45.502;12.238;2022-07-29T09:53:34;3.38;;;2.22;;
38783;SDS011;24531;45.502;12.238;2022-07-29T09:56:02;4.78;;;2.53;;
38783;SDS011;24531;45.502;12.238;2022-07-29T09:58:31;2.45;;;2.13;;
38783;SDS011;24531;45.502;12.238;2022-07-29T10:01:17;2.95;;;2.33;;
38783;SDS011;24531;45.502;12.238;2022-07-29T10:03:55;2.50;;;1.90;;
38783;SDS011;24531;45.502;12.238;2022-07-29T10:06:21;2.60;;;2.00;;
38783;SDS011;24531;45.502;12.238;2022-07-29T10:09:32;3.15;;;1.88;;
38783;SDS011;24531;45.502;12.238;2022-07-29T10:11:41;2.97;;;2.50;;
38783;SDS011;24531;45.502;12.238;2022-07-29T10:14:06;2.72;;;2.17;;
38783;SDS011;24531;45.502;12.238;2022-07-29T10:16:32;4.07;;;2.20;;
38783;SDS011;24531;45.502;12.238;2022-07-29T10:18:58;3.25;;;2.00;;
38783;SDS011;24531;45.502;12.238;2022-07-29T10:21:25;3.33;;;2.28;;
38783;SDS011;24531;45.502;12.238;2022-07-29T10:23:52;3.00;;;2.30;;
38783;SDS011;24531;45.502;12.238;2022-07-29T10:26:21;3.17;;;2.22;;
38783;SDS011;24531;45.502;12.238;2022-07-29T10:28:48;2.70;;;2.35;;
38783;SDS011;24531;45.502;12.238;2022-07-29T10:31:28;2.30;;;2.03;;
38783;SDS011;24531;45.502;12.238;2022-07-29T10:44:41;6.93;;;3.13;;
38783;SDS011;24531;45.502;12.238;2022-07-29T10:47:07;4.72;;;3.53;;
38783;SDS011;24531;45.502;12.238;2022-07-29T10:49:54;6.10;;;3.33;;
38783;SDS011;24531;45.502;12.238;2022-07-29T10:52:24;5.18;;;3.47;;
38783;SDS011;24531;45.502;12.238;2022-07-29T10:55:17;5.28;;;3.40;;
38783;SDS011;24531;45.502;12.238;2022-07-29T10:58:17;8.65;;;3.30;;
38783;SDS011;24531;45.502;12.238;2022-07-29T11:00:51;8.07;;;3.47;;
38783;SDS011;24531;45.502;12.238;2022-07-29T11:06:12;5.35;;;3.50;;
38783;SDS011;24531;45.502;12.238;2022-07-29T11:08:41;4.10;;;3.67;;
38783;SDS011;24531;45.502;12.238;2022-07-29T11:13:45;4.43;;;3.20;;
38783;SDS011;24531;45.502;12.238;2022-07-29T11:16:14;4.90;;;3.40;;
38783;SDS011;24531;45.502;12.238;2022-07-29T11:21:37;6.75;;;3.75;;
38783;SDS011;24531;45.502;12.238;2022-07-29T11:24:11;7.70;;;3.63;;
38783;SDS011;24531;45.502;12.238;2022-07-29T11:26:38;4.18;;;3.13;;
38783;SDS011;24531;45.502;12.238;2022-07-29T11:29:16;5.68;;;3.88;;
38783;SDS011;24531;45.502;12.238;2022-07-29T11:31:48;4.55;;;3.72;;
38783;SDS011;24531;45.502;12.238;2022-07-29T11:39:38;11.52;;;4.05;;
38783;SDS011;24531;45.502;12.238;2022-07-29T11:45:09;4.78;;;3.20;;
38783;SDS011;24531;45.502;12.238;2022-07-29T11:47:46;7.63;;;3.40;;
38783;SDS011;24531;45.502;12.238;2022-07-29T11:53:10;4.47;;;3.17;;
38783;SDS011;24531;45.502;12.238;2022-07-29T11:55:40;9.68;;;4.18;;
38783;SDS011;24531;45.502;12.238;2022-07-29T11:58:06;4.68;;;3.22;;
38783;SDS011;24531;45.502;12.238;2022-07-29T12:00:45;3.95;;;3.50;;
38783;SDS011;24531;45.502;12.238;2022-07-29T12:03:14;6.55;;;2.83;;
38783;SDS011;24531;45.502;12.238;2022-07-29T12:05:49;7.28;;;3.17;;
38783;SDS011;24531;45.502;12.238;2022-07-29T12:08:21;5.63;;;2.92;;
38783;SDS011;24531;45.502;12.238;2022-07-29T12:10:49;4.43;;;3.05;;
38783;SDS011;24531;45.502;12.238;2022-07-29T12:13:16;4.90;;;2.70;;
38783;SDS011;24531;45.502;12.238;2022-07-29T12:15:51;4.90;;;3.00;;
38783;SDS011;24531;45.502;12.238;2022-07-29T12:18:19;4.60;;;2.50;;
38783;SDS011;24531;45.502;12.238;2022-07-29T12:20:45;3.22;;;2.50;;
38783;SDS011;24531;45.502;12.238;2022-07-29T12:23:13;3.55;;;2.83;;
38783;SDS011;24531;45.502;12.238;2022-07-29T12:25:48;4.38;;;3.47;;
38783;SDS011;24531;45.502;12.238;2022-07-29T12:28:14;7.18;;;2.60;;
38783;SDS011;24531;45.502;12.238;2022-07-29T12:30:46;5.63;;;2.65;;
38783;SDS011;24531;45.502;12.238;2022-07-29T12:33:16;9.85;;;3.35;;
38783;SDS011;24531;45.502;12.238;2022-07-29T12:35:44;4.35;;;2.47;;
38783;SDS011;24531;45.502;12.238;2022-07-29T12:38:15;6.10;;;2.78;;
38783;SDS011;24531;45.502;12.238;2022-07-29T12:40:42;4.78;;;3.03;;
38783;SDS011;24531;45.502;12.238;2022-07-29T12:45:57;5.18;;;2.92;;
38783;SDS011;24531;45.502;12.238;2022-07-29T12:48:40;5.43;;;3.00;;
38783;SDS011;24531;45.502;12.238;2022-07-29T12:51:13;4.65;;;2.38;;
38783;SDS011;24531;45.502;12.238;2022-07-29T12:54:02;5.82;;;2.38;;
38783;SDS011;24531;45.502;12.238;2022-07-29T12:56:34;6.43;;;3.08;;
38783;SDS011;24531;45.502;12.238;2022-07-29T12:59:18;5.45;;;2.63;;
38783;SDS011;24531;45.502;12.238;2022-07-29T13:04:57;3.35;;;2.70;;
38783;SDS011;24531;45.502;12.238;2022-07-29T13:07:25;5.85;;;3.10;;
38783;SDS011;24531;45.502;12.238;2022-07-29T13:09:52;2.60;;;2.30;;
38783;SDS011;24531;45.502;12.238;2022-07-29T13:12:18;5.32;;;2.83;;
38783;SDS011;24531;45.502;12.238;2022-07-29T13:14:44;2.95;;;2.60;;
38783;SDS011;24531;45.502;12.238;2022-07-29T13:17:26;3.60;;;2.67;;
38783;SDS011;24531;45.502;12.238;2022-07-29T13:20:31;6.90;;;3.00;;
38783;SDS011;24531;45.502;12.238;2022-07-29T13:25:32;6.05;;;2.92;;
38783;SDS011;24531;45.502;12.238;2022-07-29T13:28:04;7.30;;;2.85;;
38783;SDS011;24531;45.502;12.238;2022-07-29T13:30:42;6.65;;;2.45;;
38783;SDS011;24531;45.502;12.238;2022-07-29T13:33:11;4.57;;;2.60;;
38783;SDS011;24531;45.502;12.238;2022-07-29T13:35:47;5.82;;;2.90;;
38783;SDS011;24531;45.502;12.238;2022-07-29T13:38:13;5.10;;;2.72;;
38783;SDS011;24531;45.502;12.238;2022-07-29T13:40:49;4.88;;;2.55;;
38783;SDS011;24531;45.502;12.238;2022-07-29T13:43:14;4.88;;;2.75;;
38783;SDS011;24531;45.502;12.238;2022-07-29T13:45:43;4.82;;;2.85;;
38783;SDS011;24531;45.502;12.238;2022-07-29T13:48:09;3.75;;;2.63;;
38783;SDS011;24531;45.502;12.238;2022-07-29T13:50:34;6.35;;;2.40;;
38783;SDS011;24531;45.502;12.238;2022-07-29T13:53:00;2.67;;;2.35;;
38783;SDS011;24531;45.502;12.238;2022-07-29T13:55:26;3.72;;;2.17;;
38783;SDS011;24531;45.502;12.238;2022-07-29T13:57:52;4.15;;;2.60;;
38783;SDS011;24531;45.502;12.238;2022-07-29T14:00:17;3.80;;;1.90;;
38783;SDS011;24531;45.502;12.238;2022-07-29T14:02:44;4.50;;;2.55;;
38783;SDS011;24531;45.502;12.238;2022-07-29T14:05:09;2.60;;;2.17;;
38783;SDS011;24531;45.502;12.238;2022-07-29T14:07:36;3.75;;;2.30;;
38783;SDS011;24531;45.502;12.238;2022-07-29T14:10:03;4.22;;;2.60;;
38783;SDS011;24531;45.502;12.238;2022-07-29T14:12:29;3.08;;;2.28;;
38783;SDS011;24531;45.502;12.238;2022-07-29T14:14:55;4.65;;;2.10;;
38783;SDS011;24531;45.502;12.238;2022-07-29T14:17:21;6.03;;;2.70;;
38783;SDS011;24531;45.502;12.238;2022-07-29T14:19:46;4.20;;;2.60;;
38783;SDS011;24531;45.502;12.238;2022-07-29T14:22:12;2.30;;;1.85;;
38783;SDS011;24531;45.502;12.238;2022-07-29T14:24:41;3.53;;;2.20;;
38783;SDS011;24531;45.502;12.238;2022-07-29T14:29:43;4.13;;;2.40;;
38783;SDS011;24531;45.502;12.238;2022-07-29T14:32:11;2.67;;;2.42;;
38783;SDS011;24531;45.502;12.238;2022-07-29T14:34:37;4.65;;;2.47;;
38783;SDS011;24531;45.502;12.238;2022-07-29T14:37:06;3.88;;;2.47;;
38783;SDS011;24531;45.502;12.238;2022-07-29T14:39:32;5.03;;;2.55;;
38783;SDS011;24531;45.502;12.238;2022-07-29T14:41:59;5.00;;;2.70;;
38783;SDS011;24531;45.502;12.238;2022-07-29T14:44:28;4.55;;;2.45;;
38783;SDS011;24531;45.502;12.238;2022-07-29T14:46:56;5.10;;;2.50;;
38783;SDS011;24531;45.502;12.238;2022-07-29T14:49:24;3.25;;;2.58;;
38783;SDS011;24531;45.502;12.238;2022-07-29T14:51:50;5.13;;;2.50;;
38783;SDS011;24531;45.502;12.238;2022-07-29T14:54:18;5.18;;;2.50;;
38783;SDS011;24531;45.502;12.238;2022-07-29T14:56:44;2.80;;;2.05;;
38783;SDS011;24531;45.502;12.238;2022-07-29T14:59:09;3.55;;;2.60;;
38783;SDS011;24531;45.502;12.238;2022-07-29T15:01:35;7.93;;;2.65;;
38783;SDS011;24531;45.502;12.238;2022-07-29T15:04:02;3.83;;;2.38;;
38783;SDS011;24531;45.502;12.238;2022-07-29T15:06:27;5.32;;;2.47;;
38783;SDS011;24531;45.502;12.238;2022-07-29T15:08:53;3.72;;;2.67;;
38783;SDS011;24531;45.502;12.238;2022-07-29T15:11:19;3.90;;;2.05;;
38783;SDS011;24531;45.502;12.238;2022-07-29T15:13:44;3.08;;;2.33;;
38783;SDS011;24531;45.502;12.238;2022-07-29T15:16:16;3.45;;;2.40;;
38783;SDS011;24531;45.502;12.238;2022-07-29T15:18:42;2.95;;;2.17;;
38783;SDS011;24531;45.502;12.238;2022-07-29T15:21:16;6.15;;;2.63;;
38783;SDS011;24531;45.502;12.238;2022-07-29T15:23:42;7.57;;;2.70;;
38783;SDS011;24531;45.502;12.238;2022-07-29T15:26:20;2.65;;;2.03;;
38783;SDS011;24531;45.502;12.238;2022-07-29T15:28:45;5.30;;;2.58;;
38783;SDS011;24531;45.502;12.238;2022-07-29T15:31:14;3.67;;;2.38;;
38783;SDS011;24531;45.502;12.238;2022-07-29T15:33:40;4.45;;;2.30;;
38783;SDS011;24531;45.502;12.238;2022-07-29T15:36:08;2.47;;;2.28;;
38783;SDS011;24531;45.502;12.238;2022-07-29T15:38:36;4.82;;;2.45;;
38783;SDS011;24531;45.502;12.238;2022-07-29T15:41:05;6.05;;;2.42;;
38783;SDS011;24531;45.502;12.238;2022-07-29T15:43:43;4.05;;;2.22;;
38783;SDS011;24531;45.502;12.238;2022-07-29T15:49:40;3.38;;;2.08;;
38783;SDS011;24531;45.502;12.238;2022-07-29T15:52:09;4.88;;;2.50;;
38783;SDS011;24531;45.502;12.238;2022-07-29T15:54:36;2.33;;;2.03;;
38783;SDS011;24531;45.502;12.238;2022-07-29T15:57:04;3.55;;;2.10;;
38783;SDS011;24531;45.502;12.238;2022-07-29T15:59:39;4.13;;;2.45;;
38783;SDS011;24531;45.502;12.238;2022-07-29T16:02:07;3.42;;;2.65;;
38783;SDS011;24531;45.502;12.238;2022-07-29T16:04:41;2.67;;;2.30;;
38783;SDS011;24531;45.502;12.238;2022-07-29T16:10:09;2.97;;;1.92;;
38783;SDS011;24531;45.502;12.238;2022-07-29T16:15:52;4.43;;;2.60;;
38783;SDS011;24531;45.502;12.238;2022-07-29T16:18:24;2.65;;;1.83;;
38783;SDS011;24531;45.502;12.238;2022-07-29T16:20:49;2.70;;;2.42;;
38783;SDS011;24531;45.502;12.238;2022-07-29T16:23:18;3.67;;;2.28;;
38783;SDS011;24531;45.502;12.238;2022-07-29T16:25:44;5.22;;;2.83;;